Time;durP1;ratioP1;P1;durP2;ratioP2;P2;SDS_P1;SDS_P2;PMS_P1;PMS_P2;Temp;Humidity;BMP_temperature;BMP_pressure;BME280_temperature;BME280_humidity;BME280_pressure;Samples;Min_cycle;Max_cycle;Signal;HPM_P1;HPM_P2
2022/12/06 00:01:45;;;;;;;8.05;4.97;;;;;;;2.89;100.00;98886.94;4997486;28;20413;-84
2022/12/06 00:04:30;;;;;;;8.20;5.07;;;;;;;2.71;100.00;98885.81;5003154;28;20144;-85
2022/12/06 00:07:20;;;;;;;9.63;5.40;;;;;;;2.52;100.00;98889.06;4993740;28;20057;-85
2022/12/06 00:10:05;;;;;;;8.18;5.07;;;;;;;2.52;100.00;98894.22;5017599;28;20340;-86
2022/12/06 00:12:50;;;;;;;11.23;5.50;;;;;;;2.36;100.00;98895.63;4986754;28;20046;-86
2022/12/06 00:15:36;;;;;;;8.95;5.43;;;;;;;2.32;100.00;98893.13;4998528;28;20555;-87
2022/12/06 00:18:23;;;;;;;8.75;5.28;;;;;;;2.46;100.00;98897.84;5000612;28;20068;-84
2022/12/06 00:21:09;;;;;;;11.45;6.47;;;;;;;2.35;100.00;98887.00;5005059;28;20204;-86
2022/12/06 00:23:57;;;;;;;10.30;6.47;;;;;;;2.39;100.00;98888.63;5000084;28;20544;-84
2022/12/06 00:26:47;;;;;;;8.93;5.40;;;;;;;2.22;100.00;98879.66;4987879;28;20046;-86
2022/12/06 00:29:34;;;;;;;13.13;6.63;;;;;;;2.26;100.00;98876.97;4991808;28;20061;-85
2022/12/06 00:32:22;;;;;;;11.77;5.40;;;;;;;2.44;100.00;98884.13;4987525;28;20042;-87
2022/12/06 00:35:08;;;;;;;11.35;6.30;;;;;;;2.36;100.00;98877.53;5006975;28;20050;-87
2022/12/06 00:37:59;;;;;;;10.13;5.57;;;;;;;2.44;100.00;98870.34;4999068;28;20180;-85
2022/12/06 00:40:44;;;;;;;8.63;5.00;;;;;;;2.46;100.00;98863.41;5018862;28;20125;-85
2022/12/06 00:43:31;;;;;;;9.75;5.35;;;;;;;2.42;100.00;98856.63;5004266;28;20439;-85
2022/12/06 00:46:22;;;;;;;10.68;5.65;;;;;;;2.46;100.00;98853.06;4986631;28;20062;-86
2022/12/06 00:49:09;;;;;;;9.30;5.20;;;;;;;2.50;100.00;98858.97;5001818;28;20405;-86
2022/12/06 00:51:55;;;;;;;8.95;4.88;;;;;;;2.54;100.00;98850.19;4987679;28;20133;-85
2022/12/06 00:54:40;;;;;;;9.50;4.88;;;;;;;2.52;100.00;98858.00;4988724;28;20038;-87
2022/12/06 00:57:26;;;;;;;7.85;4.35;;;;;;;2.50;100.00;98835.69;4986615;28;20112;-87
2022/12/06 01:00:11;;;;;;;7.57;4.68;;;;;;;2.35;100.00;98819.78;5004772;28;20042;-86
2022/12/06 01:02:57;;;;;;;7.18;4.40;;;;;;;2.38;100.00;98824.88;4958636;28;20501;-86
2022/12/06 01:05:48;;;;;;;7.70;4.68;;;;;;;2.39;100.00;98800.69;4997660;28;20045;-85
2022/12/06 01:08:35;;;;;;;9.02;5.50;;;;;;;2.38;100.00;98813.66;4987494;28;20471;-86
2022/12/06 01:11:21;;;;;;;7.13;4.40;;;;;;;2.56;100.00;98831.13;5002201;28;20493;-85
2022/12/06 01:14:07;;;;;;;6.18;3.33;;;;;;;2.56;100.00;98814.78;5002633;28;20046;-86
2022/12/06 01:16:51;;;;;;;7.72;4.07;;;;;;;2.45;100.00;98808.22;5002833;28;20479;-87
2022/12/06 01:19:36;;;;;;;5.50;3.03;;;;;;;2.36;100.00;98816.31;4999473;28;20054;-84
2022/12/06 01:22:22;;;;;;;5.53;3.00;;;;;;;2.38;100.00;98811.09;4996161;28;20050;-88
2022/12/06 01:25:07;;;;;;;5.50;2.95;;;;;;;2.50;100.00;98818.41;4984579;28;20074;-86
2022/12/06 01:27:52;;;;;;;5.47;3.05;;;;;;;2.52;100.00;98798.53;5002036;28;20125;-86
2022/12/06 01:30:39;;;;;;;4.60;2.60;;;;;;;2.24;100.00;98780.53;4995814;28;20797;-88
2022/12/06 01:33:24;;;;;;;4.20;2.58;;;;;;;2.22;100.00;98777.97;4972088;28;20553;-85
2022/12/06 01:36:19;;;;;;;4.03;2.78;;;;;;;2.31;100.00;98771.66;4969984;28;20062;-86
2022/12/06 01:39:05;;;;;;;4.22;2.50;;;;;;;2.25;100.00;98787.38;4971718;28;20494;-86
2022/12/06 01:41:51;;;;;;;5.30;2.40;;;;;;;2.34;100.00;98808.59;4994861;28;20482;-86
2022/12/06 01:44:43;;;;;;;3.38;2.20;;;;;;;2.30;100.00;98778.56;4985277;28;20370;-87
2022/12/06 01:47:42;;;;;;;3.70;2.33;;;;;;;2.31;100.00;98803.53;4998077;28;21230;-87
2022/12/06 01:50:31;;;;;;;3.30;2.40;;;;;;;2.19;100.00;98788.41;4990032;28;20100;-88
2022/12/06 01:53:18;;;;;;;4.05;2.35;;;;;;;2.16;100.00;98773.03;4995181;28;20109;-87
2022/12/06 01:56:03;;;;;;;4.72;2.15;;;;;;;1.97;100.00;98768.47;5001774;28;20050;-87
2022/12/06 01:58:51;;;;;;;5.03;2.42;;;;;;;2.13;100.00;98783.47;5002944;28;20072;-83
2022/12/06 02:01:39;;;;;;;3.97;2.22;;;;;;;2.04;100.00;98779.47;5012652;28;20046;-87
2022/12/06 02:04:26;;;;;;;3.33;2.00;;;;;;;2.02;100.00;98774.34;5017415;28;20045;-84
2022/12/06 02:07:12;;;;;;;2.95;1.75;;;;;;;2.02;100.00;98765.75;4980119;28;20040;-86
2022/12/06 02:10:00;;;;;;;2.33;1.50;;;;;;;2.12;100.00;98771.44;4979481;28;20049;-84
2022/12/06 02:12:54;;;;;;;4.28;1.85;;;;;;;1.87;100.00;98762.78;5008071;28;20042;-85
2022/12/06 02:15:50;;;;;;;3.47;1.55;;;;;;;1.81;100.00;98760.38;5022429;28;20055;-86
2022/12/06 02:18:57;;;;;;;2.92;1.50;;;;;;;1.75;100.00;98761.41;5031454;28;20429;-85
2022/12/06 02:21:53;;;;;;;3.20;1.60;;;;;;;1.92;100.00;98772.94;4985110;28;20054;-86
2022/12/06 02:25:19;;;;;;;3.13;1.60;;;;;;;2.00;100.00;98781.31;5023968;28;20053;-86
2022/12/06 02:28:19;;;;;;;1.90;1.13;;;;;;;1.93;100.00;98790.13;4928996;29;20095;-85
2022/12/06 02:31:37;;;;;;;2.08;1.00;;;;;;;2.01;100.00;98795.91;4939358;28;20052;-87
2022/12/06 02:34:43;;;;;;;2.00;1.10;;;;;;;2.09;100.00;98788.75;4934564;29;20067;-86
2022/12/06 02:37:40;;;;;;;1.88;1.08;;;;;;;1.88;100.00;98774.78;4925022;29;20047;-87
2022/12/06 02:40:34;;;;;;;1.52;0.75;;;;;;;1.76;100.00;98772.59;4914541;29;20067;-86
2022/12/06 02:43:35;;;;;;;2.03;0.90;;;;;;;1.76;100.00;98775.19;4925247;29;20488;-85
2022/12/06 02:46:28;;;;;;;1.52;0.63;;;;;;;1.80;100.00;98763.84;4894913;29;20535;-87
2022/12/06 02:49:13;;;;;;;1.55;0.70;;;;;;;1.82;100.00;98762.06;4901617;29;20048;-87
2022/12/06 02:51:59;;;;;;;1.67;0.90;;;;;;;1.85;100.00;98754.22;4893528;29;20835;-85
2022/12/06 02:54:47;;;;;;;1.17;0.60;;;;;;;1.83;100.00;98735.31;4912228;29;20048;-86
2022/12/06 02:57:43;;;;;;;1.20;0.38;;;;;;;1.77;100.00;98746.72;4897754;29;20103;-87
2022/12/06 03:00:40;;;;;;;1.25;0.50;;;;;;;1.73;100.00;98747.69;4870512;29;20141;-86
2022/12/06 03:03:52;;;;;;;1.77;0.80;;;;;;;1.76;100.00;98757.09;4907037;28;20044;-86
2022/12/06 03:07:10;;;;;;;0.90;0.45;;;;;;;1.66;100.00;98741.06;4953013;28;20609;-87
2022/12/06 03:10:40;;;;;;;0.65;0.35;;;;;;;1.82;100.00;98742.25;4964543;28;20042;-87
2022/12/06 03:13:47;;;;;;;0.90;0.40;;;;;;;1.87;100.00;98739.50;4965808;28;20051;-87
2022/12/06 03:16:46;;;;;;;1.02;0.50;;;;;;;1.92;100.00;98750.56;4963569;28;20054;-87
2022/12/06 03:19:32;;;;;;;1.15;0.57;;;;;;;2.00;100.00;98747.69;4954812;28;21450;-89
2022/12/06 03:22:28;;;;;;;0.57;0.32;;;;;;;1.95;100.00;98750.44;4949178;28;20055;-86
2022/12/06 03:25:14;;;;;;;0.60;0.40;;;;;;;1.97;100.00;98742.63;4952357;28;20035;-88
2022/12/06 03:28:00;;;;;;;0.80;0.60;;;;;;;1.94;100.00;98740.97;4961605;28;20097;-87
2022/12/06 03:30:55;;;;;;;0.45;0.35;;;;;;;1.96;100.00;98748.69;4966980;28;20143;-86
2022/12/06 03:33:46;;;;;;;0.90;0.50;;;;;;;1.93;100.00;98746.19;4960385;28;20658;-87
2022/12/06 03:36:31;;;;;;;1.15;0.50;;;;;;;2.05;100.00;98743.22;4949733;28;20057;-87
2022/12/06 03:39:34;;;;;;;0.98;0.55;;;;;;;2.13;100.00;98745.53;4982579;28;20138;-87
2022/12/06 03:42:19;;;;;;;1.20;0.50;;;;;;;2.24;100.00;98732.25;4978429;28;20127;-85
2022/12/06 03:45:06;;;;;;;1.17;0.63;;;;;;;2.11;100.00;98747.31;4986211;28;20116;-87
2022/12/06 03:48:25;;;;;;;1.45;0.77;;;;;;;2.01;100.00;98739.03;4980614;28;20536;-84
2022/12/06 03:51:15;;;;;;;0.60;0.50;;;;;;;1.94;100.00;98746.16;4987964;28;20038;-87
2022/12/06 03:54:04;;;;;;;0.93;0.50;;;;;;;2.03;100.00;98751.91;4986313;28;20065;-87
2022/12/06 03:56:49;;;;;;;0.88;0.40;;;;;;;2.11;100.00;98759.41;4986541;28;20121;-87
2022/12/06 03:59:34;;;;;;;1.75;0.43;;;;;;;2.08;100.00;98755.19;4970467;28;20046;-86
2022/12/06 04:02:19;;;;;;;1.00;0.55;;;;;;;2.07;100.00;98749.16;4987289;28;20171;-86
2022/12/06 04:05:06;;;;;;;0.43;0.43;;;;;;;2.07;100.00;98753.50;5006282;28;20164;-86
2022/12/06 04:07:51;;;;;;;1.20;0.50;;;;;;;2.03;100.00;98762.25;4990266;28;20420;-86
2022/12/06 04:10:36;;;;;;;0.50;0.35;;;;;;;2.22;100.00;98746.94;4993021;28;20065;-85
2022/12/06 04:13:21;;;;;;;0.55;0.50;;;;;;;2.11;100.00;98741.31;4999500;28;20758;-86
2022/12/06 04:18:09;;;;;;;0.80;0.50;;;;;;;2.01;100.00;98754.53;5016067;28;20064;-86
2022/12/06 04:19:14;;;;;;;0.63;0.40;;;;;;;2.06;100.00;98759.56;5020228;28;20056;-88
2022/12/06 04:25:07;;;;;;;0.40;0.20;;;;;;;1.96;100.00;98753.84;5017422;28;20077;-86
2022/12/06 04:40:09;;;;;;;1.92;1.38;;;;;;;2.53;100.00;98766.56;5002166;28;20065;-84
2022/12/06 04:45:59;;;;;;;1.27;0.50;;;;;;;2.70;100.00;98749.59;5001437;28;20431;-83
2022/12/06 04:48:45;;;;;;;0.75;0.60;;;;;;;2.38;100.00;98747.28;5015778;28;20113;-87
2022/12/06 04:51:32;;;;;;;2.97;1.10;;;;;;;2.68;100.00;98748.81;4999034;28;20492;-85
2022/12/06 04:54:18;;;;;;;1.92;1.10;;;;;;;2.66;100.00;98740.28;5013370;28;20152;-85
2022/12/06 04:57:10;;;;;;;0.93;0.60;;;;;;;2.59;100.00;98740.47;4999620;28;20068;-86
2022/12/06 04:59:55;;;;;;;2.15;1.40;;;;;;;2.46;100.00;98727.16;4988553;28;20512;-86
2022/12/06 05:02:40;;;;;;;1.90;0.98;;;;;;;2.49;100.00;98731.38;5006615;28;20535;-85
2022/12/06 05:05:25;;;;;;;1.45;1.00;;;;;;;2.33;100.00;98708.63;4971899;28;20113;-83
2022/12/06 05:08:12;;;;;;;0.70;0.60;;;;;;;2.18;100.00;98704.03;5018843;28;20034;-85
2022/12/06 05:10:58;;;;;;;1.20;0.73;;;;;;;2.11;100.00;98694.78;4998507;28;20038;-85
2022/12/06 05:13:48;;;;;;;1.40;0.98;;;;;;;2.12;100.00;98702.50;5001930;28;20504;-90
2022/12/06 05:16:50;;;;;;;1.20;0.80;;;;;;;2.12;100.00;98706.81;5014431;28;20085;-86
2022/12/06 05:19:46;;;;;;;0.70;0.60;;;;;;;2.14;100.00;98705.88;4986809;28;20053;-87
2022/12/06 05:22:34;;;;;;;1.33;0.77;;;;;;;2.22;100.00;98705.59;4937617;28;20062;-87
2022/12/06 05:25:23;;;;;;;1.15;0.63;;;;;;;2.01;100.00;98710.63;4938316;28;20090;-87
2022/12/06 05:28:09;;;;;;;1.15;0.73;;;;;;;2.07;100.00;98712.97;4926068;28;20492;-85
2022/12/06 05:30:55;;;;;;;1.33;0.70;;;;;;;2.08;100.00;98716.41;4940180;28;20149;-86
2022/12/06 05:33:41;;;;;;;1.13;0.70;;;;;;;2.03;100.00;98714.00;4954408;28;20043;-84
2022/12/06 05:36:27;;;;;;;1.08;0.77;;;;;;;1.93;100.00;98715.19;4956295;28;20062;-87
2022/12/06 05:39:11;;;;;;;0.93;0.90;;;;;;;1.82;100.00;98723.31;4941231;28;20047;-86
2022/12/06 05:41:56;;;;;;;0.68;0.50;;;;;;;1.92;100.00;98722.13;4969349;28;20617;-85
2022/12/06 05:44:43;;;;;;;1.20;0.90;;;;;;;1.89;100.00;98724.81;4955591;28;20040;-84
2022/12/06 05:47:28;;;;;;;1.33;0.80;;;;;;;2.02;100.00;98726.97;4957060;28;20059;-85
2022/12/06 05:50:14;;;;;;;1.00;0.80;;;;;;;2.15;100.00;98720.50;4940014;28;20039;-83
2022/12/06 05:53:08;;;;;;;1.42;0.80;;;;;;;2.27;100.00;98724.38;4982031;28;20065;-84
2022/12/06 05:55:54;;;;;;;1.67;0.98;;;;;;;2.07;100.00;98723.31;4976920;28;20046;-89
2022/12/06 05:58:46;;;;;;;0.90;0.70;;;;;;;2.32;100.00;98721.63;4986805;28;20058;-86
2022/12/06 06:02:03;;;;;;;3.33;0.93;;;;;;;2.30;100.00;98726.84;5014300;28;20129;-90
2022/12/06 06:04:49;;;;;;;1.45;0.65;;;;;;;2.48;100.00;98732.25;4983124;28;20042;-87
2022/12/06 06:07:35;;;;;;;1.20;0.80;;;;;;;2.55;100.00;98732.88;4990583;28;20161;-87
2022/12/06 06:10:24;;;;;;;1.20;0.80;;;;;;;2.61;100.00;98737.88;4999201;28;20050;-88
2022/12/06 06:13:12;;;;;;;1.15;0.80;;;;;;;2.71;100.00;98740.94;5002191;28;20038;-89
2022/12/06 06:15:59;;;;;;;1.08;0.80;;;;;;;2.67;100.00;98748.00;5000431;28;20038;-90
2022/12/06 06:18:46;;;;;;;1.13;0.80;;;;;;;2.62;100.00;98755.06;5012774;28;20080;-90
2022/12/06 06:21:33;;;;;;;1.08;0.80;;;;;;;2.53;100.00;98755.41;4965208;28;20084;-91
2022/12/06 06:24:20;;;;;;;1.05;0.73;;;;;;;2.76;100.00;98751.97;4998983;28;20034;-89
2022/12/06 06:27:05;;;;;;;1.00;0.77;;;;;;;2.65;100.00;98751.50;5001792;28;20038;-88
2022/12/06 06:29:50;;;;;;;1.50;0.90;;;;;;;2.60;100.00;98756.84;4999698;28;20810;-85
2022/12/06 06:32:35;;;;;;;0.70;0.50;;;;;;;2.69;100.00;98748.75;5009428;28;20042;-88
2022/12/06 06:35:20;;;;;;;1.08;0.80;;;;;;;2.69;100.00;98759.09;4998349;28;20044;-87
2022/12/06 06:38:06;;;;;;;1.70;0.93;;;;;;;2.75;100.00;98749.44;5014076;28;20447;-85
2022/12/06 06:40:50;;;;;;;1.05;0.68;;;;;;;2.74;100.00;98743.44;5004409;28;20078;-86
2022/12/06 06:43:35;;;;;;;3.30;1.60;;;;;;;3.07;100.00;98745.66;4997034;28;20441;-86
2022/12/06 06:46:20;;;;;;;4.90;1.42;;;;;;;2.98;100.00;98743.41;4968995;28;20116;-85
2022/12/06 06:49:05;;;;;;;3.28;1.35;;;;;;;2.86;100.00;98746.47;4999122;28;20033;-85
2022/12/06 06:51:51;;;;;;;1.83;1.02;;;;;;;2.87;100.00;98746.41;4984483;28;20053;-86
2022/12/06 06:54:36;;;;;;;2.22;1.02;;;;;;;2.99;100.00;98742.50;4988507;28;20044;-85
2022/12/06 06:57:21;;;;;;;2.78;1.25;;;;;;;2.95;100.00;98743.53;4985389;28;20110;-87
2022/12/06 07:00:08;;;;;;;2.35;1.20;;;;;;;3.01;100.00;98752.81;4998254;28;20045;-87
2022/12/06 07:02:53;;;;;;;3.83;1.70;;;;;;;2.77;100.00;98755.41;5010192;28;20547;-84
2022/12/06 07:05:42;;;;;;;3.08;1.50;;;;;;;2.88;100.00;98749.81;5000273;28;20057;-83
2022/12/06 07:08:29;;;;;;;4.00;1.55;;;;;;;2.85;100.00;98757.72;5002706;28;20058;-86
2022/12/06 07:11:15;;;;;;;2.25;1.60;;;;;;;2.73;100.00;98752.09;5014844;28;20037;-84
2022/12/06 07:14:01;;;;;;;8.55;2.00;;;;;;;2.83;100.00;98758.63;4999249;28;20061;-88
2022/12/06 07:16:48;;;;;;;2.83;1.75;;;;;;;3.12;100.00;98755.00;5002097;28;20539;-84
2022/12/06 07:19:35;;;;;;;5.13;1.52;;;;;;;3.13;100.00;98757.53;4984196;28;20042;-86
2022/12/06 07:22:25;;;;;;;2.55;1.38;;;;;;;3.03;100.00;98761.38;4996132;28;20405;-85
2022/12/06 07:25:10;;;;;;;2.50;1.33;;;;;;;2.97;100.00;98764.19;4972937;28;20042;-86
2022/12/06 07:28:04;;;;;;;1.27;0.90;;;;;;;2.91;100.00;98757.47;4971089;28;20044;-84
2022/12/06 07:30:48;;;;;;;1.42;1.00;;;;;;;3.03;100.00;98754.44;5014148;28;20130;-83
2022/12/06 07:33:33;;;;;;;2.60;1.10;;;;;;;3.04;100.00;98755.28;4985317;28;20054;-83
2022/12/06 07:36:19;;;;;;;1.33;0.85;;;;;;;3.15;100.00;98757.47;4985102;28;20053;-84
2022/12/06 07:39:04;;;;;;;3.85;1.38;;;;;;;3.18;100.00;98762.53;5008337;28;20124;-85
2022/12/06 07:45:00;;;;;;;;;;;;;;;3.14;100.00;98758.34;5021111;28;20049;-85
2022/12/06 07:47:46;;;;;;;1.27;0.90;;;;;;;3.11;100.00;98751.56;5017007;28;19921;-87
2022/12/06 07:50:31;;;;;;;1.50;0.80;;;;;;;3.06;100.00;98741.38;5001239;28;20401;-87
2022/12/06 07:53:18;;;;;;;1.25;0.77;;;;;;;3.07;100.00;98747.38;5002825;28;20038;-86
2022/12/06 07:56:08;;;;;;;1.52;0.95;;;;;;;3.18;100.00;98752.19;5018570;28;20056;-88
2022/12/06 07:58:53;;;;;;;1.00;0.88;;;;;;;3.29;100.00;98755.19;5000088;28;20060;-84
2022/12/06 08:01:38;;;;;;;1.48;0.93;;;;;;;3.37;100.00;98738.50;5014496;28;20046;-85
2022/12/06 08:04:24;;;;;;;1.30;0.82;;;;;;;3.52;100.00;98742.25;4992780;28;20522;-86
2022/12/06 08:07:13;;;;;;;2.85;1.00;;;;;;;4.23;100.00;98743.66;4998746;28;20048;-88
2022/12/06 08:10:09;;;;;;;4.05;1.50;;;;;;;4.71;100.00;98753.72;5009801;28;20060;-86
2022/12/06 08:12:58;;;;;;;4.97;1.77;;;;;;;4.66;100.00;98766.06;4984543;28;20486;-88
2022/12/06 08:15:44;;;;;;;5.00;1.67;;;;;;;4.57;100.00;98749.13;4975680;28;20132;-88
2022/12/06 08:18:31;;;;;;;6.07;1.58;;;;;;;4.49;100.00;98757.25;4978835;28;20046;-90
2022/12/06 08:21:16;;;;;;;1.60;0.90;;;;;;;3.94;100.00;98753.50;4977880;28;20101;-88
2022/12/06 08:24:05;;;;;;;2.90;1.40;;;;;;;4.26;100.00;98751.31;5011449;28;20061;-87
2022/12/06 08:26:58;;;;;;;1.58;0.90;;;;;;;4.36;100.00;98753.53;4979836;28;20053;-89
2022/12/06 08:29:44;;;;;;;2.33;1.10;;;;;;;4.22;100.00;98761.88;4993133;28;20096;-85
2022/12/06 08:32:28;;;;;;;2.80;1.40;;;;;;;4.18;100.00;98755.97;5017374;28;20052;-88
2022/12/06 08:35:16;;;;;;;2.10;1.30;;;;;;;4.15;100.00;98759.56;4988790;28;20037;-85
2022/12/06 08:38:01;;;;;;;3.22;1.50;;;;;;;4.06;100.00;98758.19;4997478;28;20038;-83
2022/12/06 08:40:46;;;;;;;2.13;1.20;;;;;;;4.07;100.00;98759.03;5000311;28;20405;-85
2022/12/06 08:43:31;;;;;;;1.65;1.02;;;;;;;4.02;100.00;98767.00;5014979;28;20061;-88
2022/12/06 08:46:16;;;;;;;1.48;0.98;;;;;;;3.80;100.00;98764.47;5017536;28;20068;-87
2022/12/06 08:49:02;;;;;;;1.23;0.80;;;;;;;3.90;100.00;98770.94;5023968;28;20144;-85
2022/12/06 08:51:47;;;;;;;1.40;0.77;;;;;;;3.97;100.00;98771.53;5001839;28;20049;-84
2022/12/06 08:54:33;;;;;;;2.38;1.25;;;;;;;3.91;100.00;98764.88;5016713;28;20431;-84
2022/12/06 08:57:19;;;;;;;2.03;0.90;;;;;;;3.97;100.00;98775.84;4999725;28;20133;-83
2022/12/06 09:00:06;;;;;;;2.35;1.02;;;;;;;3.97;100.00;98766.34;5009321;28;20038;-87
2022/12/06 09:02:51;;;;;;;147.90;33.50;;;;;;;4.11;100.00;98764.94;5012672;28;20042;-88
2022/12/06 09:05:37;;;;;;;55.63;13.10;;;;;;;4.00;100.00;98766.22;4999345;28;20041;-85
2022/12/06 09:08:22;;;;;;;83.88;23.05;;;;;;;3.86;100.00;98771.97;5005694;28;20065;-85
2022/12/06 09:11:08;;;;;;;71.68;17.10;;;;;;;3.91;100.00;98772.63;4988062;28;20141;-86
2022/12/06 09:13:53;;;;;;;31.67;9.52;;;;;;;3.80;100.00;98774.81;4981434;28;20059;-87
2022/12/06 09:16:43;;;;;;;32.90;10.10;;;;;;;3.83;100.00;98764.34;5000592;28;20046;-87
2022/12/06 09:19:28;;;;;;;44.90;12.52;;;;;;;3.46;100.00;98766.63;5003454;28;20061;-85
2022/12/06 09:22:12;;;;;;;12.90;4.75;;;;;;;3.59;100.00;98758.38;5010333;28;20784;-84
2022/12/06 09:24:58;;;;;;;5.10;2.13;;;;;;;3.59;100.00;98760.97;5018259;28;20037;-83
2022/12/06 09:27:42;;;;;;;26.50;9.10;;;;;;;3.45;100.00;98767.53;5020084;28;20641;-88
2022/12/06 09:30:27;;;;;;;13.68;5.35;;;;;;;3.61;100.00;98761.78;5012435;28;20181;-87
2022/12/06 09:33:12;;;;;;;9.38;3.47;;;;;;;3.54;100.00;98759.41;4996505;28;20212;-86
2022/12/06 09:36:03;;;;;;;15.52;4.43;;;;;;;3.58;100.00;98757.53;4989026;28;20034;-86
2022/12/06 09:38:56;;;;;;;13.07;4.25;;;;;;;3.76;100.00;98755.97;5011939;28;20049;-87
2022/12/06 09:41:58;;;;;;;5.85;2.08;;;;;;;3.81;100.00;98756.63;5003739;28;20119;-85
2022/12/06 09:45:10;;;;;;;2.08;1.42;;;;;;;3.63;100.00;98753.03;4995796;28;20034;-87
2022/12/06 09:48:07;;;;;;;8.90;2.80;;;;;;;3.66;100.00;98759.81;4975882;28;20053;-87
2022/12/06 09:51:16;;;;;;;9.30;3.25;;;;;;;3.80;100.00;98760.09;5011492;28;20042;-86
2022/12/06 09:54:04;;;;;;;4.15;1.90;;;;;;;3.73;100.00;98747.44;4991801;28;20095;-84
2022/12/06 09:56:49;;;;;;;8.13;2.47;;;;;;;3.84;100.00;98749.59;4980373;28;20046;-88
2022/12/06 09:59:52;;;;;;;4.85;2.13;;;;;;;3.49;100.00;98745.81;4974705;28;20460;-88
2022/12/06 10:02:49;;;;;;;2.85;1.23;;;;;;;3.65;100.00;98740.00;4986932;28;20049;-86
2022/12/06 10:05:50;;;;;;;2.53;1.17;;;;;;;3.79;100.00;98742.00;5019107;28;20061;-89
2022/12/06 10:08:40;;;;;;;5.53;1.77;;;;;;;3.72;100.00;98736.25;5020446;28;20105;-89
2022/12/06 10:11:58;;;;;;;1.80;1.00;;;;;;;3.69;100.00;98731.19;5013416;28;20046;-87
2022/12/06 10:15:03;;;;;;;1.92;1.10;;;;;;;3.64;100.00;98727.97;5015419;28;20138;-86
2022/12/06 10:18:26;;;;;;;5.13;1.52;;;;;;;3.60;100.00;98728.97;5014223;28;20064;-84
2022/12/06 10:21:29;;;;;;;2.63;1.08;;;;;;;3.61;100.00;98725.50;5019999;28;20048;-85
2022/12/06 10:24:26;;;;;;;1.95;0.90;;;;;;;3.69;100.00;98721.66;5013995;28;20065;-82
2022/12/06 10:27:42;;;;;;;2.42;1.08;;;;;;;3.56;100.00;98725.66;4993970;28;20045;-85
2022/12/06 10:30:33;;;;;;;1.85;1.13;;;;;;;3.60;100.00;98716.88;4996948;28;20387;-86
2022/12/06 10:33:39;;;;;;;2.33;1.20;;;;;;;3.63;100.00;98719.34;4997138;28;20103;-84
2022/12/06 10:36:36;;;;;;;18.38;5.82;;;;;;;4.00;100.00;98703.16;4996902;28;20042;-86
2022/12/06 10:39:35;;;;;;;10.65;3.88;;;;;;;4.02;100.00;98720.34;4981697;28;20096;-85
2022/12/06 10:42:48;;;;;;;8.57;3.17;;;;;;;3.75;100.00;98727.50;5007467;28;20061;-86
2022/12/06 10:49:02;;;;;;;10.68;4.10;;;;;;;3.82;100.00;98710.78;4997001;28;20061;-86
2022/12/06 10:51:50;;;;;;;11.15;4.95;;;;;;;4.09;100.00;98713.13;5012841;28;20079;-86
2022/12/06 10:55:01;;;;;;;7.78;3.22;;;;;;;4.28;100.00;98713.19;5012153;28;20061;-82
2022/12/06 10:58:14;;;;;;;17.50;6.00;;;;;;;4.17;100.00;98712.81;5021320;28;20148;-86
2022/12/06 11:01:04;;;;;;;11.00;3.78;;;;;;;4.22;100.00;98703.09;5011783;28;20520;-85
2022/12/06 11:03:59;;;;;;;12.68;5.85;;;;;;;4.10;100.00;98703.63;5003168;28;20103;-87
2022/12/06 11:06:48;;;;;;;43.10;18.38;;;;;;;4.40;100.00;98700.59;4991375;28;20056;-89
2022/12/06 11:09:43;;;;;;;8.15;3.67;;;;;;;4.16;100.00;98691.22;5009745;28;20448;-83
2022/12/06 11:12:37;;;;;;;15.73;7.20;;;;;;;4.15;100.00;98696.47;4996654;28;20048;-82
2022/12/06 11:15:37;;;;;;;5.97;2.63;;;;;;;3.93;100.00;98692.22;5007346;28;20112;-83
2022/12/06 11:18:27;;;;;;;9.25;4.40;;;;;;;3.97;100.00;98695.50;4979671;28;20065;-87
2022/12/06 11:21:22;;;;;;;3.17;2.08;;;;;;;3.92;100.00;98685.31;4978666;28;20060;-87
2022/12/06 11:24:24;;;;;;;4.65;2.47;;;;;;;3.98;100.00;98684.25;5002317;28;20037;-86
2022/12/06 11:27:17;;;;;;;9.48;4.13;;;;;;;3.81;100.00;98680.59;5014001;28;20045;-86
2022/12/06 11:30:12;;;;;;;4.13;1.73;;;;;;;3.81;100.00;98676.28;4997957;28;20042;-87
2022/12/06 11:33:00;;;;;;;2.13;1.33;;;;;;;3.88;100.00;98678.59;5011614;28;20037;-86
2022/12/06 11:35:46;;;;;;;6.32;2.70;;;;;;;3.99;100.00;98673.81;5005951;28;20571;-88
2022/12/06 11:38:33;;;;;;;2.85;1.90;;;;;;;4.13;100.00;98670.59;5012288;28;20462;-86
2022/12/06 11:41:28;;;;;;;3.83;1.73;;;;;;;4.23;100.00;98660.66;4998335;28;20049;-88
2022/12/06 11:44:17;;;;;;;4.47;1.42;;;;;;;4.02;100.00;98668.47;4996701;28;20109;-89
2022/12/06 11:47:02;;;;;;;2.45;1.58;;;;;;;4.24;100.00;98664.97;5012090;28;20061;-85
2022/12/06 11:49:51;;;;;;;2.78;1.77;;;;;;;3.97;100.00;98666.97;5009192;28;20494;-85
2022/12/06 11:52:41;;;;;;;3.15;1.67;;;;;;;3.97;100.00;98678.19;4994879;28;20061;-86
2022/12/06 11:55:33;;;;;;;2.75;1.77;;;;;;;3.90;98.98;98671.59;4982311;28;20041;-85
2022/12/06 11:58:36;;;;;;;3.10;1.75;;;;;;;3.97;100.00;98657.47;5012275;28;20447;-83
2022/12/06 12:01:41;;;;;;;2.20;1.70;;;;;;;3.93;100.00;98671.47;5005957;28;20064;-89
2022/12/06 12:04:48;;;;;;;2.75;1.80;;;;;;;3.78;99.75;98672.97;4998897;28;20045;-86
2022/12/06 12:07:34;;;;;;;2.67;1.83;;;;;;;3.83;100.00;98678.78;4995196;28;20441;-89
2022/12/06 12:10:33;;;;;;;3.17;1.98;;;;;;;4.01;99.31;98677.19;4967099;28;20470;-87
2022/12/06 12:16:34;;;;;;;2.50;1.80;;;;;;;4.26;100.00;98683.88;5012857;28;20052;-89
2022/12/06 12:19:53;;;;;;;2.08;1.50;;;;;;;4.41;98.81;98679.78;4998165;28;20046;-89
2022/12/06 12:22:44;;;;;;;1.98;1.48;;;;;;;4.57;98.27;98679.06;4972590;28;20046;-84
2022/12/06 12:25:32;;;;;;;2.35;1.40;;;;;;;4.90;97.31;98681.03;5017309;28;20041;-86
2022/12/06 12:29:21;;;;;;;2.08;1.35;;;;;;;4.89;94.25;98688.91;4989183;28;20041;-84
2022/12/06 12:32:10;;;;;;;2.45;1.70;;;;;;;4.45;95.63;98677.88;4989266;28;20069;-85
2022/12/06 12:34:54;;;;;;;3.00;1.80;;;;;;;4.48;95.85;98676.91;5003491;28;20500;-87
2022/12/06 12:37:51;;;;;;;2.38;1.63;;;;;;;4.39;97.03;98673.78;5002078;28;21486;-87
2022/12/06 12:40:40;;;;;;;3.85;1.85;;;;;;;4.58;96.02;98674.72;4991327;28;20061;-86
2022/12/06 12:43:35;;;;;;;2.75;1.60;;;;;;;4.42;96.63;98671.06;4978467;28;20048;-86
2022/12/06 12:46:24;;;;;;;2.78;1.70;;;;;;;4.47;96.37;98676.06;4975424;28;20049;-88
2022/12/06 12:49:32;;;;;;;2.58;1.40;;;;;;;4.13;98.54;98678.38;4988710;28;20169;-87
2022/12/06 12:52:38;;;;;;;3.17;1.90;;;;;;;4.00;98.22;98667.69;4988803;28;20124;-88
2022/12/06 12:55:30;;;;;;;3.08;2.13;;;;;;;3.82;99.94;98657.22;5002913;28;20046;-85
2022/12/06 12:58:14;;;;;;;2.47;1.98;;;;;;;3.95;99.36;98654.09;5009038;28;20121;-86
2022/12/06 13:01:19;;;;;;;3.30;2.10;;;;;;;3.93;99.98;98667.13;5014786;28;20073;-86
2022/12/06 13:04:29;;;;;;;3.13;2.05;;;;;;;3.90;99.84;98656.06;5001356;28;20041;-86
2022/12/06 13:07:20;;;;;;;3.67;2.30;;;;;;;3.59;100.00;98655.56;5010349;28;20084;-87
2022/12/06 13:10:13;;;;;;;3.45;2.25;;;;;;;3.60;100.00;98659.88;5015159;28;20144;-87
2022/12/06 13:13:04;;;;;;;4.68;3.00;;;;;;;3.59;100.00;98659.94;4984813;28;20121;-86
2022/12/06 13:15:56;;;;;;;7.18;3.97;;;;;;;4.00;100.00;98666.88;4969561;28;20034;-85
2022/12/06 13:18:54;;;;;;;5.95;3.40;;;;;;;4.02;100.00;98678.84;5000236;28;20135;-87
2022/12/06 13:21:41;;;;;;;4.32;2.60;;;;;;;3.78;100.00;98667.78;4997367;28;20137;-87
2022/12/06 13:24:31;;;;;;;4.63;2.38;;;;;;;3.66;100.00;98664.78;4983822;28;20125;-87
2022/12/06 13:27:19;;;;;;;3.30;2.10;;;;;;;3.62;100.00;98658.06;5006479;28;20057;-85
2022/12/06 13:30:18;;;;;;;3.30;2.15;;;;;;;3.61;100.00;98669.31;5021510;28;20060;-88
2022/12/06 13:33:18;;;;;;;4.63;2.45;;;;;;;3.93;100.00;98671.47;4984468;28;20042;-87
2022/12/06 13:36:12;;;;;;;4.70;1.83;;;;;;;4.07;95.40;98663.09;5010864;28;20374;-90
2022/12/06 13:39:22;;;;;;;5.95;2.30;;;;;;;3.97;96.60;98662.66;4988872;28;20049;-91
2022/12/06 13:42:44;;;;;;;3.60;1.90;;;;;;;4.11;94.29;98669.00;4985341;28;20049;-87
2022/12/06 13:45:44;;;;;;;3.95;1.50;;;;;;;3.79;94.26;98659.09;5001209;28;20451;-87
2022/12/06 13:48:56;;;;;;;4.03;1.80;;;;;;;3.84;98.38;98679.63;4975409;28;20055;-89
2022/12/06 13:51:46;;;;;;;2.70;1.80;;;;;;;4.02;96.71;98668.47;4937752;28;20054;-88
2022/12/06 13:54:36;;;;;;;2.25;1.42;;;;;;;3.75;96.04;98667.91;4957597;28;20059;-89
2022/12/06 13:57:30;;;;;;;2.75;1.50;;;;;;;3.91;95.81;98665.50;4925144;28;20059;-89